Buoy 46535

sailwx.info

Track history (hours):
 
Tides and Currents Weather Stations Pressure Air Temp Water Temp Dewpoint Dewpoint Depression Visibility Wind Speed Wind Dir Waves Ship Positions

Drifting buoy 46535

Last reported at 2015-May-22 16:50 UTC. Time now 2015-May-22 19:06 UTC.
Position N 55°18' W 169°44'.

Barometer 1001.5 mb
Water temperature 6.1 ° C

Date/timePositionNaut miles runAvg speedWind from/ knotsBaromVisibWave heightAir tempDewpointWater temp
2015-May-22 16:50N 55°18' W 169°44'1 0.5 1001.5 6.1
2015-May-22 14:50N 55°17' W 169°45'2 0.9 1003.7 6.2
2015-May-22 12:50N 55°15' W 169°46'2 0.5 1006.9 6.2
2015-May-22 08:50N 55°13' W 169°48'2 0.5 1012.1 6.3
2015-May-22 04:50N 55°12' W 169°51'1 0.6 1015.4 6.4
2015-May-22 02:50N 55°12' W 169°53'1 0.3 1016.5 6.4
2015-May-21 23:50N 55°11' W 169°53'2 0.8 1018.3 6.5
2015-May-21 21:50N 55°11' W 169°56'1 0.4 1018.4 6.5
2015-May-21 18:50N 55°11' W 169°58'3 0.6 1018.5 6.1
2015-May-21 12:50N 55°12' W 170°03'3 0.5 1016.5 6.1
2015-May-21 05:50N 55°14' W 170°08'2 0.6 1012.1 6.1
2015-May-21 01:50N 55°16' W 170°11'1 0.4 1009.1 6.2
2015-May-20 22:50N 55°17' W 170°12'4 1.9 1006.7 6.1
2015-May-20 20:50N 55°20' W 170°14'0 0.1 1004.8 6.1
2015-May-20 19:50N 55°20' W 170°14'3 0.9 1004.2 6.1
2015-May-20 15:50N 55°23' W 170°18'1 0.6 1000.7 6.1
2015-May-20 14:50N 55°23' W 170°19'1 1.0 1000.0 6.1
2015-May-20 13:50N 55°24' W 170°19'4 4.3 999.5 6.1
2015-May-20 12:50N 55°28' W 170°19'4 4.1 999.2 6.1
2015-May-20 11:50N 55°24' W 170°19'6 1.5 998.9 6.1
2015-May-20 07:50N 55°30' W 170°20'3 0.6 998.0 6.1
2015-May-20 03:50N 55°32' W 170°22'1 0.9 997.3 6.1
2015-May-20 02:50N 55°33' W 170°23'0 0.3 997.1 6.1
2015-May-20 01:50N 55°33' W 170°24'5 0.9 997.5 6.1
2015-May-19 19:50N 55°38' W 170°23'1 0.6 1000.3 6.0
2015-May-19 17:50N 55°39' W 170°23'2 0.7 1000.7 6.0
2015-May-19 14:50N 55°41' W 170°25'0 0.0 1001.3 6.0
2015-May-19 13:50N 55°41' W 170°25'3 0.5 1001.9 6.1
2015-May-19 08:50N 55°43' W 170°24'3 0.6 1005.0 6.2
2015-May-19 03:50N 55°46' W 170°24'1 0.9 1006.5 6.1
2015-May-19 02:50N 55°47' W 170°23'0 0.1 1006.6 6.1
2015-May-19 01:50N 55°47' W 170°23'0 0.4 1007.1 6.1
2015-May-19 00:50N 55°47' W 170°23'1 0.7 1007.6 6.1
2015-May-18 23:50N 55°48' W 170°22'1 0.6 1008.0 6.1
2015-May-18 22:50N 55°48' W 170°21'1 0.5 1008.2 6.0
2015-May-18 21:50N 55°49' W 170°21'2 0.9 1008.4 6.0
2015-May-18 19:50N 55°50' W 170°19'0 0.0 1008.4 6.0
2015-May-18 18:50N 55°50' W 170°19'0 0.5 1008.2 5.9
2015-May-18 17:50N 55°51' W 170°19'0 0.1 1008.1 5.9
2015-May-18 16:50N 55°51' W 170°19'0 0.5 1007.7 5.9
2015-May-18 15:50N 55°51' W 170°18'0 0.4 1007.4 5.9
2015-May-18 14:50N 55°51' W 170°18'0 0.4 1007.2 5.9
2015-May-18 13:50N 55°51' W 170°17'2 1.8 1006.9 5.9
2015-May-18 12:50N 55°51' W 170°14'0 0.0 1006.8 6.0
2015-May-18 11:50N 55°51' W 170°14'0 0.0 1006.4 6.0
2015-May-18 10:50N 55°51' W 170°14'2 1.0 1005.9 6.0
2015-May-18 08:50N 55°53' W 170°12'1 0.5 1004.7 6.0
2015-May-18 06:50N 55°54' W 170°12'1 0.6 1003.3 6.0
2015-May-18 05:50N 55°54' W 170°11'1 0.5 1002.8 6.1
2015-May-18 03:50N 55°53' W 170°10'1 1.5 1001.6 6.4
2015-May-18 02:50N 55°52' W 170°08'1 0.6 1001.5 6.4
2015-May-18 01:50N 55°52' W 170°07'1 0.7 1001.3 6.4
2015-May-17 23:50N 55°52' W 170°04'1 0.6 1000.6 6.3
2015-May-17 22:50N 55°52' W 170°03'0 0.2 1000.2 6.2
2015-May-17 21:50N 55°52' W 170°03'1 0.5 999.7 6.1
2015-May-17 20:50N 55°51' W 170°02'1 0.9 999.3 6.0
2015-May-17 19:50N 55°51' W 170°01'2 0.8 998.6 6.0
2015-May-17 17:50N 55°51' W 169°58'0 0.2 997.9 5.9
2015-May-17 16:50N 55°50' W 169°58'2 0.9 997.6 5.9
2015-May-17 14:50N 55°49' W 169°57'0 0.4 996.7 5.8
2015-May-17 13:50N 55°49' W 169°56'5 2.3 996.1 5.8
2015-May-17 11:50N 55°47' W 169°48'2 0.3 995.3 5.8
2015-May-17 04:50N 55°46' W 169°45'3 0.8 993.3 5.8
2015-May-17 01:50N 55°44' W 169°42'2 1.8 992.5 5.8
2015-May-17 00:50N 55°44' W 169°39'0 0.3 992.1 5.8
2015-May-16 23:50N 55°44' W 169°39'5 1.0 991.7 5.8
2015-May-16 18:50N 55°44' W 169°30'0 0.0 991.3 5.6
2015-May-16 16:50N 55°44' W 169°30'1 1.1 991.6 5.6
2015-May-16 15:50N 55°44' W 169°28'1 1.0 992.0 5.6
2015-May-16 14:50N 55°44' W 169°26'1 1.8 992.3 5.7
2015-May-16 14:00N 55°43' W 169°24'0 0.0 992.6 5.7
2015-May-16 12:50N 55°43' W 169°24'3 0.4 992.8 5.7
2015-May-16 06:50N 55°43' W 169°19'2 0.6 995.5 5.8
2015-May-16 03:50N 55°43' W 169°16'2 0.6 997.0 5.8
2015-May-15 23:50N 55°42' W 169°13'3 0.6 999.1 5.9
2015-May-15 17:50N 55°43' W 169°07'1 0.6 1000.1 5.7
2015-May-15 16:50N 55°43' W 169°06'1 0.9 1000.0 5.6
2015-May-15 15:50N 55°42' W 169°05'1 0.9 1000.0 5.7
2015-May-15 14:50N 55°43' W 169°05'0 0.1 999.9 5.7
2015-May-15 13:50N 55°43' W 169°05'5 0.8 999.6 5.8
2015-May-15 07:50N 55°42' W 168°57'1 0.3 999.3 6.1
2015-May-15 04:50N 55°42' W 168°56'0 0.4 998.2 6.3
2015-May-15 03:50N 55°42' W 168°55'0 0.0 998.1 6.0
2015-May-15 02:50N 55°42' W 168°55'0 0.5 997.9 6.0
2015-May-15 01:50N 55°41' W 168°54'0 0.4 997.6 5.8
2015-May-15 01:00N 55°41' W 168°54'2 0.7 997.6 5.6
2015-May-14 21:50N 55°40' W 168°51'0 0.1 997.1 5.5
2015-May-14 20:50N 55°40' W 168°51'2 1.5 996.9 5.4
2015-May-14 19:50N 55°39' W 168°48'2 0.5 996.7 5.4
2015-May-14 16:50N 55°39' W 168°46'0 0.1 996.0 5.3
2015-May-14 15:50N 55°39' W 168°46'1 1.1 995.8 5.3
2015-May-14 14:50N 55°39' W 168°44'0 0.1 995.6 5.3
2015-May-14 11:50N 55°39' W 168°45'3 1.0 996.0 5.3
2015-May-14 08:50N 55°37' W 168°40'1 1.2 996.7 5.4
2015-May-14 07:50N 55°36' W 168°39'1 0.7 996.9 5.4
2015-May-14 06:50N 55°36' W 168°38'1 0.3 996.8 5.4
2015-May-14 04:50N 55°36' W 168°37'1 1.3 997.0 5.4
2015-May-14 03:50N 55°35' W 168°36'1 0.7 996.9 5.4
2015-May-14 02:50N 55°36' W 168°35'0 0.5 997.0 5.3
2015-May-14 01:50N 55°35' W 168°35'1 0.8 996.8 5.3
2015-May-14 00:50N 55°35' W 168°36'2 1.7 996.9 5.3
2015-May-13 23:50N 55°34' W 168°33'0 0.0 996.9 5.3
2015-May-13 22:50N 55°34' W 168°33'1 1.0 996.6 5.2
2015-May-13 21:50N 55°33' W 168°32'0 0.0 996.4 5.2
2015-May-13 20:50N 55°33' W 168°32'2 1.2 995.9 5.2
2015-May-13 18:50N 55°33' W 168°28'0 0.0 994.5 5.2
2015-May-13 17:50N 55°33' W 168°28'0 0.2 994.0 5.2
2015-May-13 16:50N 55°33' W 168°28'0 0.2 993.4 5.2
2015-May-13 15:50N 55°33' W 168°28'0 0.5 992.7 5.2
2015-May-13 14:50N 55°32' W 168°28'3 1.4 991.8 5.2
2015-May-13 12:50N 55°30' W 168°26'0 0.0 990.8 5.3
2015-May-13 09:50N 55°30' W 168°26'3 0.5 991.1 5.2
2015-May-13 04:50N 55°29' W 168°22'2 0.4 993.8 5.3
2015-May-13 00:50N 55°28' W 168°20'1 1.3 997.7 5.3
2015-May-12 23:50N 55°27' W 168°20'0 0.0 998.6 5.3
2015-May-12 22:50N 55°27' W 168°20'1 1.3 999.5 5.3
2015-May-12 21:50N 55°25' W 168°19'2 1.6 1000.6 5.3
2015-May-12 20:50N 55°24' W 168°18'0 0.0 1001.9 5.3
2015-May-12 19:50N 55°24' W 168°18'   1003.9 5.3
Track history (hours):
 
Tides and Currents Weather Stations Pressure Air Temp Water Temp Dewpoint Dewpoint Depression Visibility Wind Speed Wind Dir Waves Ship Positions

Drifting buoy 46535

Last reported at 2015-May-22 16:50 UTC. Time now 2015-May-22 19:06 UTC.
Position N 55°18' W 169°44'.

Barometer 1001.5 mb
Water temperature 6.1 ° C

Date/timePositionNaut miles runAvg speedWind from/ knotsBaromVisibWave heightAir tempDewpointWater temp
2015-May-22 16:50N 55°18' W 169°44'1 0.5 1001.5 6.1
2015-May-22 14:50N 55°17' W 169°45'2 0.9 1003.7 6.2
2015-May-22 12:50N 55°15' W 169°46'2 0.5 1006.9 6.2
2015-May-22 08:50N 55°13' W 169°48'2 0.5 1012.1 6.3
2015-May-22 04:50N 55°12' W 169°51'1 0.6 1015.4 6.4
2015-May-22 02:50N 55°12' W 169°53'1 0.3 1016.5 6.4
2015-May-21 23:50N 55°11' W 169°53'2 0.8 1018.3 6.5
2015-May-21 21:50N 55°11' W 169°56'1 0.4 1018.4 6.5
2015-May-21 18:50N 55°11' W 169°58'3 0.6 1018.5 6.1
2015-May-21 12:50N 55°12' W 170°03'3 0.5 1016.5 6.1
2015-May-21 05:50N 55°14' W 170°08'2 0.6 1012.1 6.1
2015-May-21 01:50N 55°16' W 170°11'1 0.4 1009.1 6.2
2015-May-20 22:50N 55°17' W 170°12'4 1.9 1006.7 6.1
2015-May-20 20:50N 55°20' W 170°14'0 0.1 1004.8 6.1
2015-May-20 19:50N 55°20' W 170°14'3 0.9 1004.2 6.1
2015-May-20 15:50N 55°23' W 170°18'1 0.6 1000.7 6.1
2015-May-20 14:50N 55°23' W 170°19'1 1.0 1000.0 6.1
2015-May-20 13:50N 55°24' W 170°19'4 4.3 999.5 6.1
2015-May-20 12:50N 55°28' W 170°19'4 4.1 999.2 6.1
2015-May-20 11:50N 55°24' W 170°19'6 1.5 998.9 6.1
2015-May-20 07:50N 55°30' W 170°20'3 0.6 998.0 6.1
2015-May-20 03:50N 55°32' W 170°22'1 0.9 997.3 6.1
2015-May-20 02:50N 55°33' W 170°23'0 0.3 997.1 6.1
2015-May-20 01:50N 55°33' W 170°24'5 0.9 997.5 6.1
2015-May-19 19:50N 55°38' W 170°23'1 0.6 1000.3 6.0
2015-May-19 17:50N 55°39' W 170°23'2 0.7 1000.7 6.0
2015-May-19 14:50N 55°41' W 170°25'0 0.0 1001.3 6.0
2015-May-19 13:50N 55°41' W 170°25'3 0.5 1001.9 6.1
2015-May-19 08:50N 55°43' W 170°24'3 0.6 1005.0 6.2
2015-May-19 03:50N 55°46' W 170°24'1 0.9 1006.5 6.1
2015-May-19 02:50N 55°47' W 170°23'0 0.1 1006.6 6.1
2015-May-19 01:50N 55°47' W 170°23'0 0.4 1007.1 6.1
2015-May-19 00:50N 55°47' W 170°23'1 0.7 1007.6 6.1
2015-May-18 23:50N 55°48' W 170°22'1 0.6 1008.0 6.1
2015-May-18 22:50N 55°48' W 170°21'1 0.5 1008.2 6.0
2015-May-18 21:50N 55°49' W 170°21'2 0.9 1008.4 6.0
2015-May-18 19:50N 55°50' W 170°19'0 0.0 1008.4 6.0
2015-May-18 18:50N 55°50' W 170°19'0 0.5 1008.2 5.9
2015-May-18 17:50N 55°51' W 170°19'0 0.1 1008.1 5.9
2015-May-18 16:50N 55°51' W 170°19'0 0.5 1007.7 5.9
2015-May-18 15:50N 55°51' W 170°18'0 0.4 1007.4 5.9
2015-May-18 14:50N 55°51' W 170°18'0 0.4 1007.2 5.9
2015-May-18 13:50N 55°51' W 170°17'2 1.8 1006.9 5.9
2015-May-18 12:50N 55°51' W 170°14'0 0.0 1006.8 6.0
2015-May-18 11:50N 55°51' W 170°14'0 0.0 1006.4 6.0
2015-May-18 10:50N 55°51' W 170°14'2 1.0 1005.9 6.0
2015-May-18 08:50N 55°53' W 170°12'1 0.5 1004.7 6.0
2015-May-18 06:50N 55°54' W 170°12'1 0.6 1003.3 6.0
2015-May-18 05:50N 55°54' W 170°11'1 0.5 1002.8 6.1
2015-May-18 03:50N 55°53' W 170°10'1 1.5 1001.6 6.4
2015-May-18 02:50N 55°52' W 170°08'1 0.6 1001.5 6.4
2015-May-18 01:50N 55°52' W 170°07'1 0.7 1001.3 6.4
2015-May-17 23:50N 55°52' W 170°04'1 0.6 1000.6 6.3
2015-May-17 22:50N 55°52' W 170°03'0 0.2 1000.2 6.2
2015-May-17 21:50N 55°52' W 170°03'1 0.5 999.7 6.1
2015-May-17 20:50N 55°51' W 170°02'1 0.9 999.3 6.0
2015-May-17 19:50N 55°51' W 170°01'2 0.8 998.6 6.0
2015-May-17 17:50N 55°51' W 169°58'0 0.2 997.9 5.9
2015-May-17 16:50N 55°50' W 169°58'2 0.9 997.6 5.9
2015-May-17 14:50N 55°49' W 169°57'0 0.4 996.7 5.8
2015-May-17 13:50N 55°49' W 169°56'5 2.3 996.1 5.8
2015-May-17 11:50N 55°47' W 169°48'2 0.3 995.3 5.8
2015-May-17 04:50N 55°46' W 169°45'3 0.8 993.3 5.8
2015-May-17 01:50N 55°44' W 169°42'2 1.8 992.5 5.8
2015-May-17 00:50N 55°44' W 169°39'0 0.3 992.1 5.8
2015-May-16 23:50N 55°44' W 169°39'5 1.0 991.7 5.8
2015-May-16 18:50N 55°44' W 169°30'0 0.0 991.3 5.6
2015-May-16 16:50N 55°44' W 169°30'1 1.1 991.6 5.6
2015-May-16 15:50N 55°44' W 169°28'1 1.0 992.0 5.6
2015-May-16 14:50N 55°44' W 169°26'1 1.8 992.3 5.7
2015-May-16 14:00N 55°43' W 169°24'0 0.0 992.6 5.7
2015-May-16 12:50N 55°43' W 169°24'3 0.4 992.8 5.7
2015-May-16 06:50N 55°43' W 169°19'2 0.6 995.5 5.8
2015-May-16 03:50N 55°43' W 169°16'2 0.6 997.0 5.8
2015-May-15 23:50N 55°42' W 169°13'3 0.6 999.1 5.9
2015-May-15 17:50N 55°43' W 169°07'1 0.6 1000.1 5.7
2015-May-15 16:50N 55°43' W 169°06'1 0.9 1000.0 5.6
2015-May-15 15:50N 55°42' W 169°05'1 0.9 1000.0 5.7
2015-May-15 14:50N 55°43' W 169°05'0 0.1 999.9 5.7
2015-May-15 13:50N 55°43' W 169°05'5 0.8 999.6 5.8
2015-May-15 07:50N 55°42' W 168°57'1 0.3 999.3 6.1
2015-May-15 04:50N 55°42' W 168°56'0 0.4 998.2 6.3
2015-May-15 03:50N 55°42' W 168°55'0 0.0 998.1 6.0
2015-May-15 02:50N 55°42' W 168°55'0 0.5 997.9 6.0
2015-May-15 01:50N 55°41' W 168°54'0 0.4 997.6 5.8
2015-May-15 01:00N 55°41' W 168°54'2 0.7 997.6 5.6
2015-May-14 21:50N 55°40' W 168°51'0 0.1 997.1 5.5
2015-May-14 20:50N 55°40' W 168°51'2 1.5 996.9 5.4
2015-May-14 19:50N 55°39' W 168°48'2 0.5 996.7 5.4
2015-May-14 16:50N 55°39' W 168°46'0 0.1 996.0 5.3
2015-May-14 15:50N 55°39' W 168°46'1 1.1 995.8 5.3
2015-May-14 14:50N 55°39' W 168°44'0 0.1 995.6 5.3
2015-May-14 11:50N 55°39' W 168°45'3 1.0 996.0 5.3
2015-May-14 08:50N 55°37' W 168°40'1 1.2 996.7 5.4
2015-May-14 07:50N 55°36' W 168°39'1 0.7 996.9 5.4
2015-May-14 06:50N 55°36' W 168°38'1 0.3 996.8 5.4
2015-May-14 04:50N 55°36' W 168°37'1 1.3 997.0 5.4
2015-May-14 03:50N 55°35' W 168°36'1 0.7 996.9 5.4
2015-May-14 02:50N 55°36' W 168°35'0 0.5 997.0 5.3
2015-May-14 01:50N 55°35' W 168°35'1 0.8 996.8 5.3
2015-May-14 00:50N 55°35' W 168°36'2 1.7 996.9 5.3
2015-May-13 23:50N 55°34' W 168°33'0 0.0 996.9 5.3
2015-May-13 22:50N 55°34' W 168°33'1 1.0 996.6 5.2
2015-May-13 21:50N 55°33' W 168°32'0 0.0 996.4 5.2
2015-May-13 20:50N 55°33' W 168°32'2 1.2 995.9 5.2
2015-May-13 18:50N 55°33' W 168°28'0 0.0 994.5 5.2
2015-May-13 17:50N 55°33' W 168°28'0 0.2 994.0 5.2
2015-May-13 16:50N 55°33' W 168°28'0 0.2 993.4 5.2
2015-May-13 15:50N 55°33' W 168°28'0 0.5 992.7 5.2
2015-May-13 14:50N 55°32' W 168°28'3 1.4 991.8 5.2
2015-May-13 12:50N 55°30' W 168°26'0 0.0 990.8 5.3
2015-May-13 09:50N 55°30' W 168°26'3 0.5 991.1 5.2
2015-May-13 04:50N 55°29' W 168°22'2 0.4 993.8 5.3
2015-May-13 00:50N 55°28' W 168°20'1 1.3 997.7 5.3
2015-May-12 23:50N 55°27' W 168°20'0 0.0 998.6 5.3
2015-May-12 22:50N 55°27' W 168°20'1 1.3 999.5 5.3
2015-May-12 21:50N 55°25' W 168°19'2 1.6 1000.6 5.3
2015-May-12 20:50N 55°24' W 168°18'0 0.0 1001.9 5.3
2015-May-12 19:50N 55°24' W 168°18'   1003.9 5.3

Dump ship's entire track history